createdAt,value
2017-09-25T00:00:47.263Z,15.64
2017-09-25T00:01:47.021Z,15.58
2017-09-25T00:02:47.006Z,15.62
2017-09-25T00:03:47.019Z,15.62
2017-09-25T00:04:47.342Z,15.68
2017-09-25T00:05:47.060Z,15.64
2017-09-25T00:06:47.397Z,15.57
2017-09-25T00:07:47.411Z,15.65
2017-09-25T00:08:47.142Z,15.67
2017-09-25T00:09:47.147Z,15.64
2017-09-25T00:10:47.164Z,15.65
2017-09-25T00:11:47.189Z,15.62
2017-09-25T00:12:47.208Z,15.62
2017-09-25T00:13:47.229Z,15.64
2017-09-25T00:14:47.248Z,15.68
2017-09-25T00:15:47.270Z,15.67
2017-09-25T00:16:47.354Z,15.75
2017-09-25T00:17:47.320Z,15.67
2017-09-25T00:18:47.331Z,15.61
2017-09-25T00:19:47.351Z,15.58
2017-09-25T00:20:47.379Z,15.49
2017-09-25T00:21:47.719Z,15.57
2017-09-25T00:22:47.421Z,15.54
2017-09-25T00:23:47.441Z,15.59
2017-09-25T00:24:47.463Z,15.57
2017-09-25T00:25:47.494Z,15.65
2017-09-25T00:26:47.503Z,15.64
2017-09-25T00:27:47.528Z,15.55
2017-09-25T00:28:47.546Z,15.54
2017-09-25T00:29:47.566Z,15.37
2017-09-25T00:30:47.585Z,15.4
2017-09-25T00:31:47.964Z,15.44
2017-09-25T00:32:47.628Z,15.36
2017-09-25T00:33:47.652Z,15.42
2017-09-25T00:34:47.680Z,15.39
2017-09-25T00:35:47.693Z,15.43
2017-09-25T00:36:48.042Z,15.43
2017-09-25T00:37:48.057Z,15.4
2017-09-25T00:38:47.759Z,15.37
2017-09-25T00:39:47.782Z,15.46
2017-09-25T00:40:47.796Z,15.44
2017-09-25T00:41:47.823Z,15.57
2017-09-25T00:42:47.838Z,15.57
2017-09-25T00:43:47.865Z,15.59
2017-09-25T00:44:47.883Z,15.54
2017-09-25T00:45:47.906Z,15.55
2017-09-25T00:46:48.243Z,15.61
2017-09-25T00:47:48.006Z,15.55
2017-09-25T00:48:47.965Z,15.51
2017-09-25T00:49:47.991Z,15.55
2017-09-25T00:50:48.010Z,15.49
2017-09-25T00:51:48.034Z,15.55
2017-09-25T00:52:48.049Z,15.55
2017-09-25T00:53:48.074Z,15.44
2017-09-25T00:54:48.091Z,15.4
2017-09-25T00:55:48.119Z,15.4
2017-09-25T00:56:48.145Z,15.35
2017-09-25T00:57:48.157Z,15.42
2017-09-25T00:58:48.179Z,15.42
2017-09-25T00:59:48.205Z,15.39
2017-09-25T01:00:48.224Z,15.31
2017-09-25T01:01:48.237Z,15.35
2017-09-25T01:02:48.314Z,15.4
2017-09-25T01:03:48.293Z,15.27
2017-09-25T01:04:48.305Z,15.21
2017-09-25T01:05:48.325Z,15.25
2017-09-25T01:06:48.346Z,15.22
2017-09-25T01:07:48.366Z,15.19
2017-09-25T01:08:48.386Z,15.24
2017-09-25T01:09:48.430Z,15.15
2017-09-25T01:10:48.489Z,15.19
2017-09-25T01:11:48.453Z,15.24
2017-09-25T01:12:48.470Z,15.17
2017-09-25T01:13:48.495Z,15.19
2017-09-25T01:14:48.518Z,15.22
2017-09-25T01:15:48.535Z,15.27
2017-09-25T01:16:48.553Z,15.18
2017-09-25T01:17:48.653Z,15.24
2017-09-25T01:18:48.600Z,15.21
2017-09-25T01:19:48.619Z,15.17
2017-09-25T01:20:48.637Z,15.19
2017-09-25T01:21:48.660Z,15.14
2017-09-25T01:22:48.678Z,15.09
2017-09-25T01:23:48.698Z,14.99
2017-09-25T01:24:48.729Z,14.85
2017-09-25T01:25:48.759Z,14.86
2017-09-25T01:26:49.112Z,14.91
2017-09-25T01:27:48.782Z,14.91
2017-09-25T01:28:48.809Z,14.84
2017-09-25T01:29:48.827Z,14.96
2017-09-25T01:30:49.453Z,14.88
2017-09-25T01:31:49.737Z,14.84
2017-09-25T01:32:49.210Z,14.82
2017-09-25T01:33:48.906Z,14.86
2017-09-25T01:34:49.217Z,14.86
2017-09-25T01:35:48.961Z,14.89
2017-09-25T01:36:48.977Z,14.92
2017-09-25T01:37:49.003Z,15.07
2017-09-25T01:38:49.017Z,14.96
2017-09-25T01:39:49.033Z,14.94
2017-09-25T01:40:49.060Z,15
2017-09-25T01:41:49.390Z,15.07
2017-09-25T01:42:49.098Z,14.89
2017-09-25T01:43:49.122Z,14.96
2017-09-25T01:44:49.146Z,14.89
2017-09-25T01:45:49.163Z,14.85
2017-09-25T01:46:49.184Z,14.81
2017-09-25T01:47:49.223Z,14.73
2017-09-25T01:48:49.222Z,14.96
2017-09-25T01:49:49.242Z,14.85
2017-09-25T01:50:49.264Z,14.89
2017-09-25T01:51:49.337Z,14.88
2017-09-25T01:52:49.305Z,14.89
2017-09-25T01:53:49.326Z,14.88
2017-09-25T01:54:49.349Z,14.91
2017-09-25T01:55:49.367Z,14.88
2017-09-25T01:56:50.592Z,15.02
2017-09-25T01:57:49.419Z,14.96
2017-09-25T01:58:49.437Z,14.92
2017-09-25T01:59:49.452Z,14.96
2017-09-25T02:00:49.474Z,14.92
2017-09-25T02:01:49.498Z,14.89
2017-09-25T02:02:49.513Z,14.92
2017-09-25T02:03:49.849Z,14.89
2017-09-25T02:04:49.556Z,14.85
2017-09-25T02:05:49.574Z,14.81
2017-09-25T02:06:49.973Z,14.85
2017-09-25T02:07:49.617Z,14.79
2017-09-25T02:08:49.638Z,14.73
2017-09-25T02:09:49.658Z,14.84
2017-09-25T02:10:49.682Z,14.86
2017-09-25T02:11:49.702Z,14.78
2017-09-25T02:12:49.723Z,14.78
2017-09-25T02:13:49.743Z,14.72
2017-09-25T02:14:49.763Z,14.78
2017-09-25T02:15:49.783Z,14.82
2017-09-25T02:16:49.808Z,14.69
2017-09-25T02:17:50.132Z,14.79
2017-09-25T02:18:49.845Z,14.78
2017-09-25T02:19:49.875Z,14.81
2017-09-25T02:20:49.897Z,14.77
2017-09-25T02:21:49.955Z,14.72
2017-09-25T02:22:49.926Z,14.68
2017-09-25T02:23:49.946Z,14.7
2017-09-25T02:24:49.967Z,14.65
2017-09-25T02:25:50.004Z,14.54
2017-09-25T02:26:50.008Z,14.59
2017-09-25T02:27:50.033Z,14.48
2017-09-25T02:28:50.048Z,14.6
2017-09-25T02:29:50.394Z,14.59
2017-09-25T02:30:50.091Z,14.63
2017-09-25T02:31:50.111Z,14.69
2017-09-25T02:32:50.452Z,14.6
2017-09-25T02:33:50.157Z,14.62
2017-09-25T02:34:50.178Z,14.65
2017-09-25T02:35:50.198Z,14.72
2017-09-25T02:36:50.215Z,14.73
2017-09-25T02:37:50.244Z,14.69
2017-09-25T02:38:50.257Z,14.72
2017-09-25T02:39:50.284Z,14.7
2017-09-25T02:40:50.312Z,14.6
2017-09-25T02:41:50.688Z,14.65
2017-09-25T02:42:50.340Z,14.72
2017-09-25T02:43:50.362Z,14.62
2017-09-25T02:44:50.390Z,14.68
2017-09-25T02:45:50.399Z,14.7
2017-09-25T02:46:50.422Z,14.72
2017-09-25T02:47:50.445Z,14.72
2017-09-25T02:48:50.467Z,14.63
2017-09-25T02:49:50.795Z,14.65
2017-09-25T02:50:50.509Z,14.63
2017-09-25T02:51:50.529Z,14.62
2017-09-25T02:52:50.544Z,14.59
2017-09-25T02:53:50.587Z,14.6
2017-09-25T02:54:50.639Z,14.54
2017-09-25T02:55:50.925Z,14.54
2017-09-25T02:56:50.956Z,14.48
2017-09-25T02:57:50.654Z,14.48
2017-09-25T02:58:50.669Z,14.48
2017-09-25T02:59:50.687Z,14.47
2017-09-25T03:00:50.712Z,14.41
2017-09-25T03:01:50.736Z,14.45
2017-09-25T03:02:50.750Z,14.43
2017-09-25T03:03:50.792Z,14.32
2017-09-25T03:04:50.785Z,14.32
2017-09-25T03:05:50.810Z,14.45
2017-09-25T03:06:51.144Z,14.43
2017-09-25T03:07:50.859Z,14.36
2017-09-25T03:08:50.869Z,14.35
2017-09-25T03:09:51.204Z,14.33
2017-09-25T03:10:50.914Z,14.33
2017-09-25T03:11:50.926Z,14.33
2017-09-25T03:12:50.954Z,14.28
2017-09-25T03:13:50.980Z,14.36
2017-09-25T03:14:50.991Z,14.3
2017-09-25T03:15:51.012Z,14.18
2017-09-25T03:16:51.031Z,14.22
2017-09-25T03:17:51.054Z,14.22
2017-09-25T03:18:51.080Z,14.17
2017-09-25T03:19:51.118Z,14.17
2017-09-25T03:20:51.114Z,14.1
2017-09-25T03:21:51.137Z,14.1
2017-09-25T03:22:51.155Z,14
2017-09-25T03:23:51.184Z,13.99
2017-09-25T03:24:51.196Z,13.99
2017-09-25T03:25:51.221Z,13.99
2017-09-25T03:26:51.244Z,14.03
2017-09-25T03:27:51.261Z,14.04
2017-09-25T03:28:51.282Z,13.97
2017-09-25T03:29:51.611Z,14
2017-09-25T03:30:51.321Z,13.97
2017-09-25T03:31:51.443Z,13.99
2017-09-25T03:32:51.362Z,14.03
2017-09-25T03:33:51.385Z,14.07
2017-09-25T03:34:51.408Z,14.07
2017-09-25T03:35:51.442Z,14.03
2017-09-25T03:36:51.443Z,14.07
2017-09-25T03:37:51.460Z,14.07
2017-09-25T03:38:51.479Z,13.99
2017-09-25T03:39:51.817Z,13.93
2017-09-25T03:40:51.526Z,13.85
2017-09-25T03:41:51.545Z,13.93
2017-09-25T03:42:51.562Z,13.95
2017-09-25T03:43:51.585Z,13.96
2017-09-25T03:44:51.605Z,14.04
2017-09-25T03:45:51.619Z,13.97
2017-09-25T03:46:51.641Z,13.89
2017-09-25T03:47:51.667Z,13.87
2017-09-25T03:48:51.738Z,13.86
2017-09-25T03:49:52.044Z,13.87
2017-09-25T03:50:51.726Z,13.85
2017-09-25T03:51:51.739Z,13.87
2017-09-25T03:52:51.761Z,13.83
2017-09-25T03:53:51.836Z,13.79
2017-09-25T03:54:52.119Z,13.83
2017-09-25T03:55:51.828Z,13.79
2017-09-25T03:56:51.865Z,13.89
2017-09-25T03:57:51.866Z,13.92
2017-09-25T03:58:51.881Z,13.83
2017-09-25T03:59:51.902Z,13.79
2017-09-25T04:00:51.920Z,13.74
2017-09-25T04:01:51.943Z,13.67
2017-09-25T04:02:51.961Z,13.75
2017-09-25T04:03:52.342Z,13.7
2017-09-25T04:04:52.011Z,13.71
2017-09-25T04:05:52.025Z,13.7
2017-09-25T04:06:52.044Z,13.67
2017-09-25T04:07:52.376Z,13.6
2017-09-25T04:08:52.090Z,13.6
2017-09-25T04:09:52.102Z,13.68
2017-09-25T04:10:52.118Z,13.67
2017-09-25T04:11:52.146Z,13.65
2017-09-25T04:12:52.169Z,13.71
2017-09-25T04:13:52.187Z,13.59
2017-09-25T04:14:52.197Z,13.59
2017-09-25T04:15:52.226Z,13.63
2017-09-25T04:16:52.251Z,13.6
2017-09-25T04:17:52.261Z,13.7
2017-09-25T04:18:52.589Z,13.59
2017-09-25T04:19:52.297Z,13.63
2017-09-25T04:20:52.318Z,13.56
2017-09-25T04:21:52.343Z,13.5
2017-09-25T04:22:52.358Z,13.59
2017-09-25T04:23:52.378Z,13.62
2017-09-25T04:24:52.396Z,13.6
2017-09-25T04:25:52.417Z,13.68
2017-09-25T04:26:52.446Z,13.6
2017-09-25T04:27:52.470Z,13.62
2017-09-25T04:28:52.499Z,13.52
2017-09-25T04:29:52.498Z,13.59
2017-09-25T04:30:52.519Z,13.54
2017-09-25T04:31:52.541Z,13.62
2017-09-25T04:32:52.554Z,13.47
2017-09-25T04:33:52.577Z,13.59
2017-09-25T04:34:52.597Z,13.59
2017-09-25T04:35:52.613Z,13.52
2017-09-25T04:36:52.634Z,13.59
2017-09-25T04:37:52.652Z,13.52
2017-09-25T04:38:52.758Z,13.59
2017-09-25T04:39:52.695Z,13.47
2017-09-25T04:40:53.025Z,13.5
2017-09-25T04:41:52.732Z,13.52
2017-09-25T04:42:52.757Z,13.5
2017-09-25T04:43:52.781Z,13.57
2017-09-25T04:44:52.794Z,13.59
2017-09-25T04:45:52.815Z,13.46
2017-09-25T04:46:52.833Z,13.52
2017-09-25T04:47:52.851Z,13.41
2017-09-25T04:48:53.186Z,13.39
2017-09-25T04:49:52.893Z,13.35
2017-09-25T04:50:52.908Z,13.37
2017-09-25T04:51:52.936Z,13.41
2017-09-25T04:52:52.959Z,13.46
2017-09-25T04:53:52.969Z,13.41
2017-09-25T04:54:52.999Z,13.47
2017-09-25T04:55:53.010Z,13.37
2017-09-25T04:56:53.031Z,13.47
2017-09-25T04:57:53.058Z,13.42
2017-09-25T04:58:53.082Z,13.37
2017-09-25T04:59:53.091Z,13.33
2017-09-25T05:00:53.110Z,13.47
2017-09-25T05:01:53.134Z,13.42
2017-09-25T05:02:53.149Z,13.39
2017-09-25T05:03:53.180Z,13.39
2017-09-25T05:04:53.190Z,13.42
2017-09-25T05:05:53.530Z,13.52
2017-09-25T05:06:53.230Z,13.54
2017-09-25T05:07:53.250Z,13.59
2017-09-25T05:08:53.609Z,13.6
2017-09-25T05:09:53.287Z,13.68
2017-09-25T05:10:53.308Z,13.63
2017-09-25T05:11:53.635Z,13.68
2017-09-25T05:12:53.349Z,13.54
2017-09-25T05:13:53.568Z,13.56
2017-09-25T05:14:53.390Z,13.57
2017-09-25T05:15:53.410Z,13.62
2017-09-25T05:16:53.428Z,13.68
2017-09-25T05:17:53.449Z,13.71
2017-09-25T05:18:53.468Z,13.68
2017-09-25T05:19:53.500Z,13.63
2017-09-25T05:20:53.505Z,13.72
2017-09-25T05:21:53.537Z,13.7
2017-09-25T05:22:53.546Z,13.7
2017-09-25T05:23:53.566Z,13.62
2017-09-25T05:24:53.590Z,13.67
2017-09-25T05:25:53.608Z,13.53
2017-09-25T05:26:53.636Z,13.56
2017-09-25T05:27:53.661Z,13.56
2017-09-25T05:28:53.671Z,13.46
2017-09-25T05:29:53.690Z,13.47
2017-09-25T05:30:54.030Z,13.46
2017-09-25T05:31:53.728Z,13.49
2017-09-25T05:32:53.750Z,13.49
2017-09-25T05:33:53.770Z,13.54
2017-09-25T05:34:53.791Z,13.53
2017-09-25T05:35:53.830Z,13.63
2017-09-25T05:36:53.837Z,13.62
2017-09-25T05:37:53.851Z,13.68
2017-09-25T05:38:53.871Z,13.7
2017-09-25T05:39:54.197Z,13.7
2017-09-25T05:40:53.906Z,13.77
2017-09-25T05:41:53.924Z,13.75
2017-09-25T05:42:53.945Z,13.72
2017-09-25T05:43:53.969Z,13.68
2017-09-25T05:44:53.993Z,13.72
2017-09-25T05:45:54.014Z,13.72
2017-09-25T05:46:54.027Z,13.77
2017-09-25T05:47:54.049Z,13.74
2017-09-25T05:48:54.380Z,13.7
2017-09-25T05:49:54.086Z,13.71
2017-09-25T05:50:54.114Z,13.77
2017-09-25T05:51:54.154Z,13.74
2017-09-25T05:52:54.146Z,13.74
2017-09-25T05:53:54.480Z,13.75
2017-09-25T05:54:54.185Z,13.78
2017-09-25T05:55:54.207Z,13.83
2017-09-25T05:56:54.231Z,13.9
2017-09-25T05:57:54.555Z,13.9
2017-09-25T05:58:54.269Z,13.81
2017-09-25T05:59:54.287Z,13.85
2017-09-25T06:00:54.309Z,13.75
2017-09-25T06:01:54.332Z,13.86
2017-09-25T06:02:54.357Z,13.92
2017-09-25T06:03:54.365Z,13.96
2017-09-25T06:04:54.393Z,14.03
2017-09-25T06:05:54.409Z,14
2017-09-25T06:06:54.438Z,13.93
2017-09-25T06:07:54.762Z,14
2017-09-25T06:08:54.471Z,13.97
2017-09-25T06:09:54.487Z,13.92
2017-09-25T06:10:54.506Z,13.96
2017-09-25T06:11:54.530Z,14.07
2017-09-25T06:12:54.548Z,14.08
2017-09-25T06:13:54.890Z,13.99
2017-09-25T06:14:54.597Z,14.1
2017-09-25T06:15:54.617Z,14.03
2017-09-25T06:16:54.632Z,14.07
2017-09-25T06:17:54.659Z,14.1
2017-09-25T06:18:54.978Z,14.18
2017-09-25T06:19:54.690Z,14.32
2017-09-25T06:20:55.127Z,14.33
2017-09-25T06:21:54.735Z,14.32
2017-09-25T06:22:54.756Z,14.45
2017-09-25T06:23:54.771Z,14.47
2017-09-25T06:24:54.792Z,14.47
2017-09-25T06:25:54.821Z,14.54
2017-09-25T06:26:55.147Z,14.55
2017-09-25T06:27:54.861Z,14.54
2017-09-25T06:28:54.906Z,14.54
2017-09-25T06:29:54.961Z,14.51
2017-09-25T06:30:54.917Z,14.53
2017-09-25T06:31:54.948Z,14.6
2017-09-25T06:32:54.957Z,14.66
2017-09-25T06:33:54.984Z,14.59
2017-09-25T06:34:55.318Z,14.73
2017-09-25T06:35:55.329Z,14.73
2017-09-25T06:36:55.041Z,14.77
2017-09-25T06:37:55.063Z,14.82
2017-09-25T06:38:55.092Z,14.82
2017-09-25T06:39:55.104Z,14.84
2017-09-25T06:40:55.125Z,14.85
2017-09-25T06:41:55.154Z,14.89
2017-09-25T06:42:55.162Z,14.88
2017-09-25T06:43:55.505Z,14.84
2017-09-25T06:44:55.226Z,14.82
2017-09-25T06:45:55.227Z,14.94
2017-09-25T06:46:55.252Z,14.92
2017-09-25T06:47:55.268Z,14.86
2017-09-25T06:48:55.662Z,14.85
2017-09-25T06:49:55.313Z,14.89
2017-09-25T06:50:55.655Z,14.99
2017-09-25T06:51:55.354Z,15.06
2017-09-25T06:52:55.373Z,15.14
2017-09-25T06:53:55.708Z,15.19
2017-09-25T06:54:55.421Z,15.31
2017-09-25T06:55:55.748Z,15.39
2017-09-25T06:56:55.460Z,15.36
2017-09-25T06:57:55.480Z,15.36
2017-09-25T06:58:55.503Z,15.43
2017-09-25T06:59:55.546Z,15.4
2017-09-25T07:00:55.856Z,15.54
2017-09-25T07:01:55.565Z,15.54
2017-09-25T07:02:55.637Z,15.64
2017-09-25T07:03:55.606Z,15.7
2017-09-25T07:04:55.630Z,15.76
2017-09-25T07:05:55.648Z,15.77
2017-09-25T07:06:55.690Z,15.82
2017-09-25T07:07:55.750Z,15.95
2017-09-25T07:08:55.715Z,16.04
2017-09-25T07:09:55.733Z,16.02
2017-09-25T07:10:55.756Z,16.04
2017-09-25T07:11:55.784Z,16.05
2017-09-25T07:12:55.809Z,16.1
2017-09-25T07:13:55.822Z,16.2
2017-09-25T07:14:55.845Z,16.23
2017-09-25T07:15:56.182Z,16.2
2017-09-25T07:16:55.888Z,16.29
2017-09-25T07:17:55.957Z,16.32
2017-09-25T07:18:55.934Z,16.47
2017-09-25T07:19:55.954Z,16.58
2017-09-25T07:20:55.973Z,16.51
2017-09-25T07:21:55.993Z,16.66
2017-09-25T07:22:56.084Z,16.68
2017-09-25T07:23:56.041Z,16.6
2017-09-25T07:24:56.059Z,16.69
2017-09-25T07:25:56.398Z,16.72
2017-09-25T07:26:56.105Z,16.75
2017-09-25T07:27:56.130Z,16.66
2017-09-25T07:28:56.157Z,16.69
2017-09-25T07:29:56.190Z,16.78
2017-09-25T07:30:56.195Z,16.69
2017-09-25T07:31:56.221Z,16.79
2017-09-25T07:32:56.549Z,16.91
2017-09-25T07:33:56.268Z,16.93
2017-09-25T07:34:56.594Z,16.9
2017-09-25T07:35:56.621Z,17.06
2017-09-25T07:36:56.332Z,17.02
2017-09-25T07:37:56.712Z,16.91
2017-09-25T07:38:56.369Z,17.04
2017-09-25T07:39:56.397Z,16.94
2017-09-25T07:40:56.420Z,17.01
2017-09-25T07:41:56.436Z,17.05
2017-09-25T07:42:56.455Z,17.26
2017-09-25T07:43:56.485Z,17.33
2017-09-25T07:44:56.503Z,17.31
2017-09-25T07:45:56.534Z,17.42
2017-09-25T07:46:56.547Z,17.42
2017-09-25T07:47:56.575Z,17.49
2017-09-25T07:48:56.597Z,17.54
2017-09-25T07:49:56.613Z,17.57
2017-09-25T07:50:56.952Z,17.67
2017-09-25T07:51:56.662Z,17.65
2017-09-25T07:52:56.694Z,17.71
2017-09-25T07:53:56.705Z,17.71
2017-09-25T07:54:56.778Z,17.64
2017-09-25T07:55:56.754Z,17.67
2017-09-25T07:56:56.774Z,17.74
2017-09-25T07:57:56.791Z,17.8
2017-09-25T07:58:56.821Z,17.89
2017-09-25T07:59:56.840Z,17.85
2017-09-25T08:00:56.861Z,17.95
2017-09-25T08:01:56.883Z,17.98
2017-09-25T08:02:56.912Z,18.01
2017-09-25T08:03:56.937Z,18.15
2017-09-25T08:04:56.966Z,18.2
2017-09-25T08:05:57.317Z,18.22
2017-09-25T08:06:56.997Z,18.4
2017-09-25T08:07:57.023Z,18.29
2017-09-25T08:08:57.048Z,18.41
2017-09-25T08:09:57.070Z,18.49
2017-09-25T08:10:57.151Z,18.47
2017-09-25T08:11:57.112Z,18.5
2017-09-25T08:12:57.139Z,18.58
2017-09-25T08:13:57.158Z,18.52
2017-09-25T08:14:57.181Z,18.59
2017-09-25T08:15:57.218Z,18.71
2017-09-25T08:16:57.244Z,18.77
2017-09-25T08:17:57.255Z,18.86
2017-09-25T08:18:57.275Z,18.84
2017-09-25T08:19:57.305Z,18.86
2017-09-25T08:20:57.323Z,18.81
2017-09-25T08:21:57.345Z,18.78
2017-09-25T08:22:57.374Z,18.77
2017-09-25T08:23:57.415Z,18.78
2017-09-25T08:24:57.417Z,18.98
2017-09-25T08:25:57.442Z,19.07
2017-09-25T08:26:57.511Z,19
2017-09-25T08:27:57.489Z,18.9
2017-09-25T08:28:57.514Z,19.08
2017-09-25T08:29:57.532Z,19
2017-09-25T08:30:57.557Z,19.19
2017-09-25T08:31:57.583Z,19.29
2017-09-25T08:32:57.615Z,19.4
2017-09-25T08:33:57.629Z,19.27
2017-09-25T08:34:58.300Z,19.41
2017-09-25T08:35:57.989Z,19.62
2017-09-25T08:36:57.696Z,19.41
2017-09-25T08:37:57.776Z,19.64
2017-09-25T08:38:57.753Z,19.67
2017-09-25T08:39:57.771Z,19.63
2017-09-25T08:40:57.792Z,19.67
2017-09-25T08:41:58.157Z,19.79
2017-09-25T08:42:57.893Z,19.81
2017-09-25T08:43:57.870Z,19.94
2017-09-25T08:44:57.895Z,20.03
2017-09-25T08:45:57.913Z,20
2017-09-25T08:46:57.938Z,20.19
2017-09-25T08:47:57.961Z,20.24
2017-09-25T08:48:57.994Z,20.16
2017-09-25T08:49:58.027Z,20.16
2017-09-25T08:50:58.039Z,20.29
2017-09-25T08:51:58.060Z,20.32
2017-09-25T08:52:58.091Z,20.32
2017-09-25T08:53:58.111Z,20.37
2017-09-25T08:54:58.447Z,20.31
2017-09-25T08:55:58.174Z,20.48
2017-09-25T08:56:58.182Z,20.51
2017-09-25T08:57:58.262Z,20.52
2017-09-25T08:58:58.248Z,20.69
2017-09-25T08:59:58.259Z,20.7
2017-09-25T09:00:58.277Z,20.85
2017-09-25T09:01:58.309Z,20.85
2017-09-25T09:02:58.355Z,20.95
2017-09-25T09:03:58.356Z,21.02
2017-09-25T09:04:58.385Z,21
2017-09-25T09:05:58.407Z,20.87
2017-09-25T09:06:58.431Z,20.92
2017-09-25T09:07:58.458Z,21.06
2017-09-25T09:08:58.485Z,21.24
2017-09-25T09:09:58.812Z,21.3
2017-09-25T09:10:58.529Z,21.45
2017-09-25T09:11:58.557Z,21.64
2017-09-25T09:12:58.632Z,21.76
2017-09-25T09:13:58.608Z,21.82
2017-09-25T09:14:58.634Z,22.04
2017-09-25T09:15:58.665Z,21.96
2017-09-25T09:16:58.680Z,22.08
2017-09-25T09:17:58.707Z,22.1
2017-09-25T09:18:58.730Z,22.25
2017-09-25T09:19:58.754Z,22.41
2017-09-25T09:20:58.835Z,22.29
2017-09-25T09:21:58.808Z,22.28
2017-09-25T09:22:58.831Z,22.39
2017-09-25T09:23:58.887Z,22.51
2017-09-25T09:24:59.202Z,22.44
2017-09-25T09:25:58.910Z,22.41
2017-09-25T09:26:58.938Z,22.18
2017-09-25T09:27:59.012Z,22.28
2017-09-25T09:28:59.001Z,22.18
2017-09-25T09:29:59.012Z,22.2
2017-09-25T09:30:59.041Z,22.48
2017-09-25T09:31:59.075Z,22.65
2017-09-25T09:32:59.090Z,22.8
2017-09-25T09:33:59.115Z,22.83
2017-09-25T09:34:59.141Z,22.83
2017-09-25T09:35:59.166Z,22.85
2017-09-25T09:36:59.527Z,22.98
2017-09-25T09:37:59.220Z,22.94
2017-09-25T09:38:59.253Z,23.03
2017-09-25T09:39:59.276Z,22.94
2017-09-25T09:40:59.302Z,22.83
2017-09-25T09:41:59.329Z,23.03
2017-09-25T09:42:59.356Z,23.21
2017-09-25T09:43:59.380Z,23.25
2017-09-25T09:44:59.409Z,23.34
2017-09-25T09:45:59.438Z,23.32
2017-09-25T09:46:59.829Z,23.13
2017-09-25T09:47:59.490Z,23.03
2017-09-25T09:48:59.525Z,23.06
2017-09-25T09:49:59.551Z,22.84
2017-09-25T09:50:59.573Z,22.88
2017-09-25T09:51:59.601Z,23.02
2017-09-25T09:52:59.631Z,22.84
2017-09-25T09:53:59.652Z,22.6
2017-09-25T09:54:59.682Z,22.45
2017-09-25T09:55:59.710Z,22.68
2017-09-25T09:56:59.739Z,22.84
2017-09-25T09:57:59.774Z,23.17
2017-09-25T09:58:59.792Z,23.25
2017-09-25T09:59:59.817Z,23.36
2017-09-25T10:01:00.192Z,23.63
2017-09-25T10:01:59.873Z,23.74
2017-09-25T10:02:59.904Z,23.92
2017-09-25T10:04:00.291Z,24.02
2017-09-25T10:04:59.956Z,24.17
2017-09-25T10:05:59.988Z,24.43
2017-09-25T10:07:00.016Z,24.84
2017-09-25T10:08:00.052Z,24.93
2017-09-25T10:09:00.115Z,25.03
2017-09-25T10:10:00.110Z,25.18
2017-09-25T10:11:00.135Z,25.16
2017-09-25T10:12:00.159Z,25.43
2017-09-25T10:13:00.518Z,25.55
2017-09-25T10:14:00.217Z,25.44
2017-09-25T10:15:00.247Z,25.69
2017-09-25T10:16:00.278Z,25.83
2017-09-25T10:17:00.308Z,26.19
2017-09-25T10:18:00.338Z,25.96
2017-09-25T10:19:00.368Z,26
2017-09-25T10:20:00.451Z,26.21
2017-09-25T10:21:00.741Z,26.4
2017-09-25T10:22:00.460Z,26.78
2017-09-25T10:23:00.494Z,26.9
2017-09-25T10:24:00.524Z,26.92
2017-09-25T10:25:00.557Z,26.6
2017-09-25T10:26:00.587Z,26.8
2017-09-25T10:27:00.623Z,26.85
2017-09-25T10:28:00.652Z,27.1
2017-09-25T10:29:00.683Z,27.26
2017-09-25T10:30:00.714Z,27.22
2017-09-25T10:31:00.755Z,27.67
2017-09-25T10:32:00.794Z,27.71
2017-09-25T10:33:00.806Z,27.86
2017-09-25T10:34:00.835Z,28.14
2017-09-25T10:35:00.865Z,28.12
2017-09-25T10:36:00.898Z,28.33
2017-09-25T10:37:00.979Z,28.63
2017-09-25T10:38:01.279Z,29.05
2017-09-25T10:39:00.998Z,29.1
2017-09-25T10:40:01.027Z,29.45
2017-09-25T10:41:01.060Z,29.54
2017-09-25T10:42:01.103Z,29.54
2017-09-25T10:43:01.139Z,29.94
2017-09-25T10:44:01.169Z,30.13
2017-09-25T10:45:01.500Z,30.47
2017-09-25T10:46:01.230Z,30.44
2017-09-25T10:47:01.257Z,30.51
2017-09-25T10:48:01.291Z,30.55
2017-09-25T10:49:01.333Z,30.72
2017-09-25T10:50:01.359Z,30.81
2017-09-25T10:51:01.393Z,30.92
2017-09-25T10:52:01.496Z,30.8
2017-09-25T10:53:01.460Z,30.46
2017-09-25T10:54:01.494Z,30.15
2017-09-25T10:55:01.531Z,29.93
2017-09-25T10:56:01.560Z,29.54
2017-09-25T10:57:01.597Z,29.02
2017-09-25T10:58:01.622Z,28.72
2017-09-25T10:59:01.972Z,28.67
2017-09-25T11:00:01.691Z,28.41
2017-09-25T11:01:01.727Z,28.48
2017-09-25T11:02:01.757Z,28.32
2017-09-25T11:03:02.110Z,28.17
2017-09-25T11:04:01.821Z,28.22
2017-09-25T11:05:01.850Z,28.51
2017-09-25T11:06:01.879Z,28.74
2017-09-25T11:07:01.913Z,28.72
2017-09-25T11:08:01.942Z,28.52
2017-09-25T11:09:01.974Z,28.33
2017-09-25T11:10:02.009Z,28.08
2017-09-25T11:11:02.089Z,27.98
2017-09-25T11:12:02.065Z,27.92
2017-09-25T11:13:02.097Z,27.78
2017-09-25T11:14:02.132Z,27.7
2017-09-25T11:15:02.170Z,27.58
2017-09-25T11:16:02.189Z,27.51
2017-09-25T11:17:02.231Z,27.63
2017-09-25T11:18:02.567Z,27.55
2017-09-25T11:19:02.279Z,27.37
2017-09-25T11:20:02.331Z,27.37
2017-09-25T11:21:02.367Z,27.44
2017-09-25T11:22:02.371Z,27.47
2017-09-25T11:23:02.404Z,27.26
2017-09-25T11:24:02.439Z,27.11
2017-09-25T11:25:02.775Z,26.84
2017-09-25T11:26:02.542Z,26.7
2017-09-25T11:27:02.529Z,26.58
2017-09-25T11:28:02.555Z,26.44
2017-09-25T11:29:02.584Z,26.15
2017-09-25T11:30:02.623Z,26.23
2017-09-25T11:31:02.642Z,26.6
2017-09-25T11:32:02.672Z,26.99
2017-09-25T11:33:02.694Z,27.26
2017-09-25T11:34:02.723Z,27.58
2017-09-25T11:35:02.757Z,27.59
2017-09-25T11:36:03.102Z,27.45
2017-09-25T11:37:02.817Z,27.26
2017-09-25T11:38:02.844Z,27.14
2017-09-25T11:39:02.880Z,26.89
2017-09-25T11:40:02.907Z,26.62
2017-09-25T11:41:02.979Z,26.6
2017-09-25T11:42:02.959Z,26.65
2017-09-25T11:43:02.990Z,26.74
2017-09-25T11:44:03.020Z,26.75
2017-09-25T11:45:03.049Z,27
2017-09-25T11:46:03.077Z,27.12
2017-09-25T11:47:03.109Z,27.2
2017-09-25T11:48:03.134Z,27.27
2017-09-25T11:49:03.165Z,27.2
2017-09-25T11:50:03.191Z,27.14
2017-09-25T11:51:03.220Z,27.07
2017-09-25T11:52:03.881Z,27.29
2017-09-25T11:53:03.607Z,27.44
2017-09-25T11:54:03.629Z,27.83
2017-09-25T11:55:03.335Z,28.38
2017-09-25T11:56:03.368Z,28.89
2017-09-25T11:57:03.399Z,28.94
2017-09-25T11:58:03.444Z,28.84
2017-09-25T11:59:03.475Z,28.63
2017-09-25T12:00:03.542Z,28.47
2017-09-25T12:01:03.525Z,28.45
2017-09-25T12:02:03.551Z,28.22
2017-09-25T12:03:03.584Z,28.11
2017-09-25T12:04:03.612Z,27.73
2017-09-25T12:05:03.637Z,27.39
2017-09-25T12:06:03.669Z,27.17
2017-09-25T12:07:03.693Z,27.08
2017-09-25T12:08:03.727Z,27.05
2017-09-25T12:09:03.764Z,27.32
2017-09-25T12:10:03.814Z,27.74
2017-09-25T12:11:03.827Z,28.17
2017-09-25T12:12:03.844Z,28.6
2017-09-25T12:13:04.186Z,29.12
2017-09-25T12:14:03.909Z,29.81
2017-09-25T12:15:04.013Z,30.25
2017-09-25T12:16:03.969Z,30.68
2017-09-25T12:17:04.003Z,30.87
2017-09-25T12:18:04.044Z,30.66
2017-09-25T12:19:04.084Z,30.39
2017-09-25T12:20:04.106Z,30.09
2017-09-25T12:21:04.129Z,30.13
2017-09-25T12:22:04.159Z,30.4
2017-09-25T12:23:04.191Z,31.09
2017-09-25T12:24:04.247Z,31.61
2017-09-25T12:25:04.330Z,32.08
2017-09-25T12:26:04.338Z,32.23
2017-09-25T12:27:04.323Z,32.04
2017-09-25T12:28:04.350Z,32.04
2017-09-25T12:29:04.385Z,32.46
2017-09-25T12:30:04.490Z,32.9
2017-09-25T12:31:04.456Z,33.23
2017-09-25T12:32:04.481Z,32.92
2017-09-25T12:33:04.514Z,32.59
2017-09-25T12:34:04.554Z,32.07
2017-09-25T12:35:04.992Z,31.84
2017-09-25T12:36:04.645Z,31.62
2017-09-25T12:37:04.653Z,31.96
2017-09-25T12:38:04.682Z,32.18
2017-09-25T12:39:04.720Z,32
2017-09-25T12:40:04.744Z,32.37
2017-09-25T12:41:04.780Z,33
2017-09-25T12:42:04.816Z,33.71
2017-09-25T12:43:04.846Z,34.18
2017-09-25T12:44:04.888Z,34.4
2017-09-25T12:45:05.077Z,34.7
2017-09-25T12:46:04.957Z,35.12
2017-09-25T12:47:05.308Z,35.55
2017-09-25T12:48:05.031Z,35.82
2017-09-25T12:49:05.059Z,35.76
2017-09-25T12:50:05.091Z,35.92
2017-09-25T12:51:05.131Z,35.78
2017-09-25T12:52:05.474Z,36.02
2017-09-25T12:53:05.214Z,36.36
2017-09-25T12:54:05.243Z,36.47
2017-09-25T12:55:05.270Z,36.45
2017-09-25T12:56:05.398Z,36.57
2017-09-25T12:57:05.339Z,36.58